Birch Island, Canada
Current Conditions -  °F | °C
As of 7:00 AM on Friday 19 Dec 2014 (Local Time) from CYZE Reporting Station
Overcast Overcast  
Wind Chill:   Ceiling: 13000
Heat Index: 16°   Visibility: 9mi
Dew Point: 12°   Wind: 9mph
Humidity: 86%   Direction: 30°NNE
Pressure: 30.24"   Gusts: NA
Location:  46.05°N, 81.78°W
Report Text: CYZE 191200Z AUTO 03008KT 9SM OVC130 M09/M11 A3024 RMK ICG SLP254
Loading
Personal Weather Stations






























Interactive Weather Map New forecast layout! Learn more

10-Day Weather Forecast

Advertisements
Track Severe Weather on mobile